createdAt,value
2022-11-22T00:00:34.118Z,87.48168945
2022-11-22T00:01:34.605Z,87.48168945
2022-11-22T00:02:35.075Z,87.37792969
2022-11-22T00:03:35.403Z,87.23754883
2022-11-22T00:04:35.857Z,87.27416992
2022-11-22T00:05:36.335Z,87.34130859
2022-11-22T00:06:37.294Z,87.54272461
2022-11-22T00:07:37.894Z,87.54272461
2022-11-22T00:08:38.830Z,87.43896484
2022-11-22T00:09:39.251Z,87.43896484
2022-11-22T00:10:39.728Z,87.34130859
2022-11-22T00:11:40.198Z,87.34130859
2022-11-22T00:12:40.645Z,87.34130859
2022-11-22T00:13:41.075Z,87.34130859
2022-11-22T00:14:41.609Z,87.34130859
2022-11-22T00:15:42.103Z,87.43896484
2022-11-22T00:16:43.325Z,87.43896484
2022-11-22T00:17:43.781Z,87.43896484
2022-11-22T00:18:44.285Z,87.54272461
2022-11-22T00:19:44.746Z,87.54272461
2022-11-22T00:20:45.201Z,87.34130859
2022-11-22T00:21:45.652Z,87.34130859
2022-11-22T00:22:46.070Z,87.43896484
2022-11-22T00:23:46.546Z,87.43896484
2022-11-22T00:24:46.998Z,87.29858398
2022-11-22T00:26:18.591Z,87.19482422
2022-11-22T00:27:19.054Z,87.19482422
2022-11-22T00:28:19.603Z,87.19482422
2022-11-22T00:29:20.579Z,87.19482422
2022-11-22T00:30:21.042Z,87.19482422
2022-11-22T00:31:21.515Z,87.19482422
2022-11-22T00:32:21.939Z,87.29858398
2022-11-22T00:33:22.695Z,87.40234375
2022-11-22T00:34:23.083Z,87.40234375
2022-11-22T00:35:23.507Z,87.29858398
2022-11-22T00:36:24.638Z,87.19482422
2022-11-22T00:37:25.132Z,87.19482422
2022-11-22T00:38:26.437Z,87.19482422
2022-11-22T00:39:27.162Z,87.29858398
2022-11-22T00:40:27.293Z,87.29858398
2022-11-22T00:41:27.718Z,87.40234375
2022-11-22T00:42:28.183Z,87.50610352
2022-11-22T00:43:28.683Z,87.50610352
2022-11-22T00:44:29.172Z,87.40234375
2022-11-22T00:45:29.666Z,87.50610352
2022-11-22T00:46:31.088Z,87.50610352
2022-11-22T00:47:31.541Z,87.40234375
2022-11-22T00:48:32.013Z,87.29858398
2022-11-22T00:49:32.727Z,87.29858398
2022-11-22T00:50:32.948Z,87.19482422
2022-11-22T00:51:33.431Z,87.19482422
2022-11-22T00:52:34.812Z,87.09106445
2022-11-22T00:53:35.302Z,87.09106445
2022-11-22T00:54:35.773Z,87.09106445
2022-11-22T00:55:36.299Z,86.98730469
2022-11-22T00:56:37.595Z,86.98730469
2022-11-22T00:57:38.089Z,86.98730469
2022-11-22T00:58:38.611Z,86.98730469
2022-11-22T00:59:39.033Z,87.09106445
2022-11-22T01:00:39.583Z,87.19482422
2022-11-22T01:01:40.053Z,87.29858398
2022-11-22T01:02:40.470Z,87.40234375
2022-11-22T01:03:40.949Z,87.40234375
2022-11-22T01:04:41.410Z,87.40234375
2022-11-22T01:05:41.850Z,87.40234375
2022-11-22T01:06:43.097Z,87.40234375
2022-11-22T01:07:43.643Z,87.40234375
2022-11-22T01:08:44.888Z,87.40234375
2022-11-22T01:09:45.412Z,87.29858398
2022-11-22T01:10:45.864Z,87.19482422
2022-11-22T01:11:46.305Z,86.78588867
2022-11-22T01:13:18.089Z,86.57836914
2022-11-22T01:14:18.622Z,86.47460938
2022-11-22T01:15:19.032Z,86.57836914
2022-11-22T01:16:19.495Z,86.47460938
2022-11-22T01:17:20.804Z,86.47460938
2022-11-22T01:18:21.264Z,86.47460938
2022-11-22T01:19:22.580Z,86.37084961
2022-11-22T01:20:22.969Z,86.37084961
2022-11-22T01:21:23.425Z,86.37084961
2022-11-22T01:22:23.858Z,86.37084961
2022-11-22T01:23:24.387Z,86.37084961
2022-11-22T01:24:24.975Z,86.47460938
2022-11-22T01:25:25.435Z,86.57836914
2022-11-22T01:26:25.886Z,86.57836914
2022-11-22T01:27:27.311Z,86.47460938
2022-11-22T01:28:27.750Z,86.57836914
2022-11-22T01:29:28.782Z,86.57836914
2022-11-22T01:30:28.736Z,86.68212891
2022-11-22T01:31:29.226Z,86.78588867
2022-11-22T01:32:29.710Z,86.78588867
2022-11-22T01:33:31.097Z,86.78588867
2022-11-22T01:34:31.563Z,86.78588867
2022-11-22T01:35:32.007Z,86.78588867
2022-11-22T01:36:33.102Z,86.88354492
2022-11-22T01:37:33.628Z,86.88354492
2022-11-22T01:38:34.134Z,86.98730469
2022-11-22T01:39:34.635Z,86.98730469
2022-11-22T01:40:35.029Z,86.16333008
2022-11-22T01:41:35.509Z,85.13793945
2022-11-22T01:42:36.016Z,85.03417969
2022-11-22T01:43:37.366Z,85.24169922
2022-11-22T01:44:37.956Z,85.65063477
2022-11-22T01:45:38.266Z,85.58959961
2022-11-22T01:46:39.596Z,85.69335938
2022-11-22T01:47:40.192Z,85.79101563
2022-11-22T01:48:40.710Z,85.58959961
2022-11-22T01:49:41.244Z,85.48583984
2022-11-22T01:50:41.714Z,85.48583984
2022-11-22T01:51:42.145Z,85.48583984
2022-11-22T01:52:42.577Z,85.48583984
2022-11-22T01:53:43.229Z,85.58959961
2022-11-22T01:54:43.750Z,85.69335938
2022-11-22T01:55:44.206Z,85.17456055
2022-11-22T01:56:45.595Z,85.38208008
2022-11-22T01:57:46.441Z,85.48583984
2022-11-22T01:59:17.323Z,85.79101563
2022-11-22T02:00:17.840Z,85.69335938
2022-11-22T02:01:18.358Z,85.79101563
2022-11-22T02:02:18.766Z,85.89477539
2022-11-22T02:03:19.230Z,85.9375
2022-11-22T02:04:19.718Z,86.34643555
2022-11-22T02:05:20.410Z,86.34643555
2022-11-22T02:06:20.761Z,86.34643555
2022-11-22T02:07:21.892Z,86.45019531
2022-11-22T02:08:23.079Z,86.55395508
2022-11-22T02:09:23.557Z,86.76147461
2022-11-22T02:10:24.127Z,86.86523438
2022-11-22T02:11:27.397Z,87.17041016
2022-11-22T02:12:25.109Z,87.58544922
2022-11-22T02:13:25.595Z,87.99438477
2022-11-22T02:14:26.038Z,88.30566406
2022-11-22T02:15:26.531Z,88.40942383
2022-11-22T02:16:27.019Z,88.51318359
2022-11-22T02:17:28.374Z,88.81835938
2022-11-22T02:18:28.894Z,88.65356445
2022-11-22T02:19:29.611Z,88.86108398
2022-11-22T02:20:29.825Z,89.02587891
2022-11-22T02:21:30.246Z,89.23339844
2022-11-22T02:22:30.771Z,89.12963867
2022-11-22T02:23:31.271Z,89.27612305
2022-11-22T02:24:31.772Z,89.27612305
2022-11-22T02:25:32.355Z,89.48364258
2022-11-22T02:26:32.650Z,89.68505859
2022-11-22T02:27:33.890Z,89.68505859
2022-11-22T02:28:34.380Z,89.89257813
2022-11-22T02:29:34.878Z,89.78881836
2022-11-22T02:30:35.492Z,89.89257813
2022-11-22T02:31:35.828Z,89.48364258
2022-11-22T02:32:36.283Z,89.17236328
2022-11-22T02:33:36.788Z,88.96484375
2022-11-22T02:34:37.263Z,89.31884766
2022-11-22T02:35:37.775Z,89.48364258
2022-11-22T02:36:38.279Z,89.68505859
2022-11-22T02:37:38.670Z,89.78881836
2022-11-22T02:38:39.124Z,89.89257813
2022-11-22T02:39:39.690Z,89.68505859
2022-11-22T02:40:40.210Z,89.78881836
2022-11-22T02:41:40.761Z,89.89257813
2022-11-22T02:42:41.236Z,89.06860352
2022-11-22T02:43:41.701Z,89.06860352
2022-11-22T02:44:42.217Z,88.96484375
2022-11-22T02:45:42.739Z,88.86108398
2022-11-22T02:46:43.222Z,88.75732422
2022-11-22T02:47:44.339Z,88.75732422
2022-11-22T02:48:44.845Z,88.5559082
2022-11-22T02:49:45.295Z,88.61694336
2022-11-22T02:51:16.270Z,88.72070313
2022-11-22T02:52:16.771Z,88.61694336
2022-11-22T02:53:17.320Z,88.51318359
2022-11-22T02:54:17.777Z,88.40942383
2022-11-22T02:55:18.223Z,88.40942383
2022-11-22T02:56:18.710Z,88.51318359
2022-11-22T02:57:20.124Z,88.72070313
2022-11-22T02:58:20.625Z,88.72070313
2022-11-22T02:59:21.055Z,88.72070313
2022-11-22T03:00:21.468Z,88.72070313
2022-11-22T03:01:21.932Z,88.81835938
2022-11-22T03:02:22.673Z,88.81835938
2022-11-22T03:03:23.167Z,88.81835938
2022-11-22T03:04:23.646Z,88.81835938
2022-11-22T03:05:24.123Z,89.02587891
2022-11-22T03:06:24.623Z,88.92211914
2022-11-22T03:07:25.683Z,88.92211914
2022-11-22T03:08:27.086Z,88.92211914
2022-11-22T03:09:27.733Z,88.92211914
2022-11-22T03:10:28.028Z,88.81835938
2022-11-22T03:11:28.490Z,88.81835938
2022-11-22T03:12:28.893Z,88.81835938
2022-11-22T03:13:29.494Z,89.02587891
2022-11-22T03:14:30.006Z,88.72070313
2022-11-22T03:15:30.515Z,88.2019043
2022-11-22T03:16:30.997Z,87.99438477
2022-11-22T03:17:32.105Z,87.89672852
2022-11-22T03:18:32.575Z,87.48168945
2022-11-22T03:19:33.354Z,87.27416992
2022-11-22T03:20:33.583Z,87.17041016
2022-11-22T03:21:34.210Z,86.86523438
2022-11-22T03:22:34.532Z,86.76147461
2022-11-22T03:23:34.944Z,86.45019531
2022-11-22T03:24:35.393Z,86.49291992
2022-11-22T03:25:35.980Z,86.28540039
2022-11-22T03:26:36.457Z,86.38916016
2022-11-22T03:27:37.590Z,85.87036133
2022-11-22T03:28:38.041Z,85.97412109
2022-11-22T03:29:38.461Z,85.87036133
2022-11-22T03:30:39.029Z,85.70556641
2022-11-22T03:31:39.508Z,85.80932617
2022-11-22T03:32:39.961Z,86.0168457
2022-11-22T03:33:40.442Z,86.0168457
2022-11-22T03:34:40.844Z,85.91308594
2022-11-22T03:35:41.308Z,86.12060547
2022-11-22T03:36:41.839Z,86.42578125
2022-11-22T03:37:43.125Z,86.32202148
2022-11-22T03:38:43.598Z,86.22436523
2022-11-22T03:39:44.069Z,86.52954102
2022-11-22T03:40:44.509Z,86.94458008
2022-11-22T03:42:20.943Z,86.94458008
2022-11-22T03:43:16.602Z,87.15209961
2022-11-22T03:44:17.194Z,87.15209961
2022-11-22T03:45:17.772Z,87.15209961
2022-11-22T03:46:18.212Z,86.94458008
2022-11-22T03:47:19.615Z,86.63330078
2022-11-22T03:48:20.088Z,86.42578125
2022-11-22T03:49:21.125Z,85.97412109
2022-11-22T03:50:21.660Z,85.97412109
2022-11-22T03:51:22.115Z,86.07788086
2022-11-22T03:52:22.753Z,85.87036133
2022-11-22T03:53:23.291Z,86.07788086
2022-11-22T03:54:23.799Z,85.97412109
2022-11-22T03:55:24.282Z,85.97412109
2022-11-22T03:56:24.755Z,85.87036133
2022-11-22T03:57:26.215Z,85.66894531
2022-11-22T03:58:26.588Z,85.66894531
2022-11-22T03:59:27.231Z,85.97412109
2022-11-22T04:00:27.612Z,86.18164063
2022-11-22T04:01:28.161Z,86.07788086
2022-11-22T04:02:28.620Z,85.66894531
2022-11-22T04:03:29.152Z,85.66894531
2022-11-22T04:04:29.593Z,85.77270508
2022-11-22T04:05:30.178Z,85.77270508
2022-11-22T04:06:30.730Z,85.66894531
2022-11-22T04:07:32.165Z,85.46142578
2022-11-22T04:08:32.666Z,85.46142578
2022-11-22T04:09:34.155Z,85.35766602
2022-11-22T04:10:34.289Z,85.80932617
2022-11-22T04:11:34.808Z,85.91308594
2022-11-22T04:12:35.326Z,86.0168457
2022-11-22T04:13:36.368Z,86.22436523
2022-11-22T04:14:36.836Z,86.32202148
2022-11-22T04:15:37.322Z,86.12060547
2022-11-22T04:16:37.830Z,86.12060547
2022-11-22T04:17:39.138Z,86.22436523
2022-11-22T04:18:39.560Z,86.0168457
2022-11-22T04:19:40.070Z,85.70556641
2022-11-22T04:20:40.481Z,85.19287109
2022-11-22T04:21:40.900Z,85.08911133
2022-11-22T04:22:41.542Z,85.19287109
2022-11-22T04:23:41.931Z,85.19287109
2022-11-22T04:24:42.359Z,84.8815918
2022-11-22T04:25:42.797Z,84.8815918
2022-11-22T04:26:43.252Z,84.8815918
2022-11-22T04:27:44.621Z,84.8815918
2022-11-22T04:29:15.443Z,84.8815918
2022-11-22T04:30:20.276Z,84.5703125
2022-11-22T04:31:16.373Z,84.26513672
2022-11-22T04:32:16.829Z,84.05761719
2022-11-22T04:33:17.382Z,84.26513672
2022-11-22T04:34:17.876Z,84.05761719
2022-11-22T04:35:18.391Z,84.46655273
2022-11-22T04:36:18.852Z,84.5703125
2022-11-22T04:37:19.305Z,84.46655273
2022-11-22T04:38:20.379Z,84.46655273
2022-11-22T04:39:21.657Z,84.5703125
2022-11-22T04:40:22.116Z,84.77783203
2022-11-22T04:41:22.760Z,84.67407227
2022-11-22T04:42:23.242Z,84.5703125
2022-11-22T04:43:23.732Z,84.36279297
2022-11-22T04:44:24.155Z,84.36279297
2022-11-22T04:45:24.627Z,84.36279297
2022-11-22T04:46:25.090Z,84.16137695
2022-11-22T04:47:25.620Z,84.05761719
2022-11-22T04:48:26.863Z,84.05761719
2022-11-22T04:49:27.685Z,84.16137695
2022-11-22T04:50:27.815Z,84.16137695
2022-11-22T04:51:28.353Z,84.26513672
2022-11-22T04:52:28.834Z,84.05761719
2022-11-22T04:53:30.131Z,84.16137695
2022-11-22T04:54:30.578Z,84.16137695
2022-11-22T04:55:30.991Z,83.95385742
2022-11-22T04:56:31.420Z,83.95385742
2022-11-22T04:57:32.001Z,83.85009766
2022-11-22T04:58:33.370Z,83.74633789
2022-11-22T04:59:33.842Z,83.23364258
2022-11-22T05:00:34.294Z,83.53881836
2022-11-22T05:01:34.784Z,83.74633789
2022-11-22T05:02:35.189Z,83.43505859
2022-11-22T05:03:35.739Z,83.33129883
2022-11-22T05:04:36.200Z,83.33129883
2022-11-22T05:05:36.730Z,83.23364258
2022-11-22T05:06:37.167Z,83.43505859
2022-11-22T05:07:37.682Z,83.64257813
2022-11-22T05:08:38.956Z,83.64257813
2022-11-22T05:09:39.471Z,83.85009766
2022-11-22T05:10:39.989Z,83.85009766
2022-11-22T05:11:40.424Z,83.85009766
2022-11-22T05:12:40.840Z,83.85009766
2022-11-22T05:13:41.960Z,84.05761719
2022-11-22T05:14:42.369Z,84.30175781
2022-11-22T05:15:42.836Z,84.19799805
2022-11-22T05:16:43.324Z,84.19799805
2022-11-22T05:18:15.088Z,84.30175781
2022-11-22T05:19:15.542Z,84.26513672
2022-11-22T05:20:16.039Z,84.16137695
2022-11-22T05:21:16.496Z,83.74633789
2022-11-22T05:22:17.052Z,83.64257813
2022-11-22T05:23:17.553Z,83.85009766
2022-11-22T05:24:17.993Z,83.85009766
2022-11-22T05:25:24.039Z,83.74633789
2022-11-22T05:26:18.985Z,83.53881836
2022-11-22T05:27:19.502Z,83.23364258
2022-11-22T05:28:21.598Z,83.02612305
2022-11-22T05:29:22.053Z,83.02612305
2022-11-22T05:30:22.777Z,83.12988281
2022-11-22T05:31:23.497Z,83.02612305
2022-11-22T05:32:23.836Z,82.81860352
2022-11-22T05:33:24.351Z,82.55004883
2022-11-22T05:34:24.856Z,82.50732422
2022-11-22T05:35:25.290Z,82.20214844
2022-11-22T05:36:26.584Z,82.20214844
2022-11-22T05:37:27.104Z,81.68334961
2022-11-22T05:38:28.609Z,81.51245117
2022-11-22T05:39:29.650Z,81.7199707
2022-11-22T05:40:29.635Z,81.92749023
2022-11-22T05:41:30.105Z,81.82373047
2022-11-22T05:42:30.580Z,81.92749023
2022-11-22T05:43:32.131Z,81.92749023
2022-11-22T05:44:32.690Z,81.7199707
2022-11-22T05:45:33.159Z,81.7199707
2022-11-22T05:46:33.595Z,81.61621094
2022-11-22T05:47:34.032Z,81.61621094
2022-11-22T05:48:35.106Z,81.20727539
2022-11-22T05:49:35.650Z,80.99975586
2022-11-22T05:50:36.129Z,80.89599609
2022-11-22T05:51:36.590Z,80.99975586
2022-11-22T05:52:37.045Z,81.10351563
2022-11-22T05:53:37.481Z,81.31103516
2022-11-22T05:54:38.029Z,81.51245117
2022-11-22T05:55:38.482Z,81.41479492
2022-11-22T05:56:38.989Z,81.31103516
2022-11-22T05:57:39.413Z,81.10351563
2022-11-22T05:58:40.804Z,80.79223633
2022-11-22T05:59:44.158Z,80.89599609
2022-11-22T06:00:42.427Z,80.89599609
2022-11-22T06:01:43.000Z,80.99975586
2022-11-22T06:03:13.858Z,81.10351563
2022-11-22T06:04:14.296Z,80.5847168
2022-11-22T06:05:14.802Z,80.68847656
